createdAt,value
2023-05-03T00:01:31.096Z,0.20
2023-05-03T00:03:58.751Z,0.43
2023-05-03T00:06:26.899Z,0.70
2023-05-03T00:08:54.801Z,0.40
2023-05-03T00:11:25.512Z,0.35
2023-05-03T00:13:53.253Z,0.30
2023-05-03T00:16:21.069Z,0.32
2023-05-03T00:18:49.470Z,0.68
2023-05-03T00:21:17.412Z,0.50
2023-05-03T00:23:45.860Z,0.28
2023-05-03T00:26:13.578Z,0.47
2023-05-03T00:28:41.942Z,0.30
2023-05-03T00:31:11.287Z,0.55
2023-05-03T00:33:39.755Z,0.47
2023-05-03T00:36:11.931Z,0.50
2023-05-03T00:38:42.108Z,0.52
2023-05-03T00:41:11.233Z,0.30
2023-05-03T00:43:39.596Z,0.10
2023-05-03T00:46:16.530Z,0.60
2023-05-03T00:48:51.482Z,0.38
2023-05-03T00:51:20.837Z,0.68
2023-05-03T00:53:48.536Z,1.08
2023-05-03T00:56:21.329Z,0.52
2023-05-03T00:58:51.049Z,0.55
2023-05-03T01:01:19.233Z,0.75
2023-05-03T01:03:48.273Z,0.50
2023-05-03T01:06:38.063Z,0.40
2023-05-03T01:09:28.305Z,0.47
2023-05-03T01:12:06.014Z,0.57
2023-05-03T01:14:58.957Z,0.52
2023-05-03T01:17:29.813Z,0.40
2023-05-03T01:20:11.462Z,0.20
2023-05-03T01:22:56.455Z,0.77
2023-05-03T01:25:24.555Z,0.30
2023-05-03T01:27:52.352Z,0.30
2023-05-03T01:30:23.557Z,0.47
2023-05-03T01:33:09.795Z,0.32
2023-05-03T01:35:44.553Z,0.30
2023-05-03T01:38:13.498Z,0.55
2023-05-03T01:40:52.689Z,0.30
2023-05-03T01:43:22.713Z,0.20
2023-05-03T01:45:50.826Z,0.47
2023-05-03T01:48:19.769Z,0.40
2023-05-03T01:50:47.571Z,0.70
2023-05-03T01:53:15.364Z,0.50
2023-05-03T01:55:45.344Z,0.30
2023-05-03T01:58:13.103Z,0.47
2023-05-03T02:00:40.859Z,0.30
2023-05-03T02:03:09.189Z,0.50
2023-05-03T02:05:37.045Z,0.32
2023-05-03T02:08:04.684Z,0.50
2023-05-03T02:10:32.463Z,0.50
2023-05-03T02:13:00.647Z,0.40
2023-05-03T02:15:28.301Z,0.43
2023-05-03T02:17:58.699Z,0.52
2023-05-03T02:20:26.532Z,0.22
2023-05-03T02:22:54.217Z,0.40
2023-05-03T02:25:21.926Z,0.40
2023-05-03T02:27:49.648Z,0.57
2023-05-03T02:30:17.401Z,0.90
2023-05-03T02:32:45.270Z,0.73
2023-05-03T02:35:13.293Z,0.60
2023-05-03T02:37:41.035Z,0.30
2023-05-03T02:40:12.565Z,0.63
2023-05-03T02:42:42.492Z,0.75
2023-05-03T02:45:10.765Z,0.30
2023-05-03T02:47:38.603Z,0.38
2023-05-03T02:50:07.917Z,0.63
2023-05-03T02:52:39.671Z,0.50
2023-05-03T02:55:07.986Z,0.50
2023-05-03T02:57:36.308Z,0.50
2023-05-03T03:00:06.804Z,0.70
2023-05-03T03:02:34.832Z,0.43
2023-05-03T03:05:02.757Z,0.43
2023-05-03T03:07:30.537Z,0.68
2023-05-03T03:09:59.059Z,0.70
2023-05-03T03:12:29.042Z,0.70
2023-05-03T03:14:57.400Z,0.88
2023-05-03T03:17:26.235Z,0.60
2023-05-03T03:19:54.481Z,0.68
2023-05-03T03:22:22.207Z,0.47
2023-05-03T03:24:50.007Z,0.70
2023-05-03T03:27:17.863Z,0.50
2023-05-03T03:29:45.680Z,0.52
2023-05-03T03:32:15.522Z,0.55
2023-05-03T03:34:43.623Z,0.73
2023-05-03T03:37:11.483Z,0.63
2023-05-03T03:39:42.265Z,0.77
2023-05-03T03:42:12.356Z,0.40
2023-05-03T03:44:40.708Z,0.57
2023-05-03T03:47:09.744Z,0.32
2023-05-03T03:49:37.565Z,0.50
2023-05-03T03:52:06.382Z,0.60
2023-05-03T03:54:36.842Z,0.60
2023-05-03T03:57:05.178Z,0.43
2023-05-03T03:59:34.081Z,0.90
2023-05-03T04:02:01.893Z,0.60
2023-05-03T04:04:31.823Z,0.90
2023-05-03T04:06:59.854Z,0.77
2023-05-03T04:09:28.884Z,0.57
2023-05-03T04:11:57.055Z,0.82
2023-05-03T04:14:25.099Z,0.75
2023-05-03T04:16:53.683Z,0.63
2023-05-03T04:19:22.770Z,0.70
2023-05-03T04:21:51.088Z,1.00
2023-05-03T04:24:21.311Z,0.80
2023-05-03T04:26:51.587Z,1.83
2023-05-03T04:29:26.606Z,1.65
2023-05-03T04:31:54.807Z,1.10
2023-05-03T04:34:22.920Z,2.17
2023-05-03T04:36:53.892Z,1.25
2023-05-03T04:39:23.476Z,1.30
2023-05-03T04:41:51.187Z,0.90
2023-05-03T04:44:19.549Z,1.75
2023-05-03T04:46:51.099Z,0.88
2023-05-03T04:49:19.471Z,1.00
2023-05-03T04:51:47.298Z,0.88
2023-05-03T04:54:15.084Z,1.35
2023-05-03T04:56:42.795Z,0.90
2023-05-03T04:59:15.978Z,0.90
2023-05-03T05:01:44.076Z,0.98
2023-05-03T05:04:11.992Z,0.85
2023-05-03T05:06:44.522Z,0.85
2023-05-03T05:09:26.031Z,0.80
2023-05-03T05:11:57.156Z,0.98
2023-05-03T05:14:31.505Z,1.08
2023-05-03T05:17:00.083Z,0.98
2023-05-03T05:19:28.240Z,1.08
2023-05-03T05:21:56.572Z,1.00
2023-05-03T05:24:28.273Z,1.50
2023-05-03T05:26:56.717Z,1.55
2023-05-03T05:29:25.171Z,1.48
2023-05-03T05:31:53.298Z,1.55
2023-05-03T05:34:21.542Z,1.40
2023-05-03T05:36:52.268Z,1.30
2023-05-03T05:39:23.289Z,1.20
2023-05-03T05:41:51.535Z,0.73
2023-05-03T05:44:19.854Z,0.93
2023-05-03T05:46:49.788Z,1.45
2023-05-03T05:49:18.677Z,0.93
2023-05-03T05:51:46.862Z,0.75
2023-05-03T05:54:14.617Z,0.73
2023-05-03T05:56:42.574Z,0.57
2023-05-03T05:59:10.872Z,0.90
2023-05-03T06:01:41.906Z,0.77
2023-05-03T06:04:11.137Z,0.90
2023-05-03T06:06:39.243Z,0.95
2023-05-03T06:09:17.259Z,0.93
2023-05-03T06:11:54.320Z,1.17
2023-05-03T06:14:22.782Z,1.33
2023-05-03T06:16:52.811Z,1.25
2023-05-03T06:19:21.158Z,1.13
2023-05-03T06:21:49.032Z,1.25
2023-05-03T06:24:21.453Z,1.00
2023-05-03T06:26:53.774Z,0.85
2023-05-03T06:29:21.839Z,1.00
2023-05-03T06:31:49.727Z,1.15
2023-05-03T06:34:20.552Z,0.60
2023-05-03T06:36:50.475Z,0.82
2023-05-03T06:39:19.362Z,0.50
2023-05-03T06:41:47.377Z,0.70
2023-05-03T06:44:15.253Z,0.60
2023-05-03T06:46:43.016Z,0.60
2023-05-03T06:49:10.922Z,0.30
2023-05-03T06:51:38.658Z,0.68
2023-05-03T06:54:10.083Z,0.47
2023-05-03T06:56:37.860Z,0.63
2023-05-03T06:59:05.677Z,0.43
2023-05-03T07:01:34.123Z,0.40
2023-05-03T07:04:05.042Z,0.40
2023-05-03T07:06:40.776Z,0.47
2023-05-03T07:09:16.431Z,0.55
2023-05-03T07:11:49.611Z,0.55
2023-05-03T07:14:17.285Z,0.30
2023-05-03T07:16:45.011Z,0.20
2023-05-03T07:19:12.899Z,0.30
2023-05-03T07:21:40.762Z,0.38
2023-05-03T07:24:09.030Z,0.13
2023-05-03T07:26:36.725Z,0.40
2023-05-03T07:29:04.468Z,0.32
2023-05-03T07:31:32.518Z,0.35
2023-05-03T07:34:00.338Z,0.30
2023-05-03T07:36:28.072Z,0.20
2023-05-03T07:38:58.161Z,1.50
2023-05-03T07:41:26.837Z,0.30
2023-05-03T07:43:55.077Z,0.10
2023-05-03T07:46:23.371Z,0.30
2023-05-03T07:48:51.174Z,0.10
2023-05-03T07:51:18.937Z,0.22
2023-05-03T07:53:46.657Z,0.47
2023-05-03T07:56:14.574Z,0.10
2023-05-03T07:58:43.686Z,0.13
2023-05-03T08:01:13.017Z,0.22
2023-05-03T08:03:41.249Z,0.00
2023-05-03T08:06:09.487Z,0.40
2023-05-03T08:08:38.377Z,0.25
2023-05-03T08:11:06.123Z,0.30
2023-05-03T08:13:33.882Z,0.70
2023-05-03T08:16:01.681Z,0.50
2023-05-03T08:18:29.505Z,0.40
2023-05-03T08:20:57.717Z,0.32
2023-05-03T08:23:25.979Z,0.25
2023-05-03T08:25:54.832Z,0.30
2023-05-03T08:28:22.650Z,0.10
2023-05-03T08:30:52.495Z,0.50
2023-05-03T08:33:20.172Z,0.20
2023-05-03T08:35:49.370Z,0.10
2023-05-03T08:38:17.306Z,0.30
2023-05-03T08:40:48.343Z,0.30
2023-05-03T08:43:20.154Z,0.32
2023-05-03T08:45:51.504Z,0.22
2023-05-03T08:48:19.373Z,0.75
2023-05-03T08:50:47.262Z,0.38
2023-05-03T08:53:14.986Z,0.50
2023-05-03T08:55:43.001Z,0.20
2023-05-03T08:58:12.677Z,0.32
2023-05-03T09:00:45.247Z,0.22
2023-05-03T09:03:13.810Z,0.20
2023-05-03T09:05:44.426Z,0.00
2023-05-03T09:08:13.662Z,0.25
2023-05-03T09:10:43.055Z,0.47
2023-05-03T09:13:12.144Z,0.22
2023-05-03T09:15:40.259Z,0.20
2023-05-03T09:18:20.561Z,0.93
2023-05-03T09:20:53.244Z,2.45
2023-05-03T09:23:27.684Z,0.88
2023-05-03T09:25:56.025Z,0.80
2023-05-03T09:28:24.208Z,0.20
2023-05-03T09:31:04.964Z,0.65
2023-05-03T09:33:33.659Z,0.13
2023-05-03T09:36:03.566Z,0.20
2023-05-03T09:38:39.407Z,0.22
2023-05-03T09:41:07.171Z,0.50
2023-05-03T09:43:36.109Z,0.25
2023-05-03T09:46:13.722Z,1.92
2023-05-03T09:48:42.091Z,4.45
2023-05-03T09:51:11.611Z,1.90
2023-05-03T09:53:41.689Z,0.85
2023-05-03T09:56:13.772Z,0.22
2023-05-03T09:58:43.834Z,0.28
2023-05-03T10:01:12.174Z,0.93
2023-05-03T10:03:46.853Z,0.40
2023-05-03T10:06:28.226Z,0.20
2023-05-03T10:08:55.917Z,0.45
2023-05-03T10:11:27.479Z,0.25
2023-05-03T10:13:56.326Z,0.35
2023-05-03T10:16:29.504Z,0.20
2023-05-03T10:19:11.960Z,0.30
2023-05-03T10:22:11.297Z,1.75
2023-05-03T10:25:02.600Z,0.30
2023-05-03T10:27:45.287Z,0.30
2023-05-03T10:30:31.310Z,0.63
2023-05-03T10:33:19.362Z,0.13
2023-05-03T10:35:54.402Z,0.70
2023-05-03T10:38:24.307Z,0.20
2023-05-03T10:40:52.723Z,0.10
2023-05-03T10:43:32.230Z,0.30
2023-05-03T10:46:01.983Z,0.43
2023-05-03T10:48:31.067Z,0.50
2023-05-03T10:51:29.133Z,0.32
2023-05-03T10:53:56.993Z,0.32
2023-05-03T10:56:24.805Z,0.40
2023-05-03T10:58:56.316Z,0.32
2023-05-03T11:01:25.250Z,0.22
2023-05-03T11:04:25.785Z,0.47
2023-05-03T11:06:56.925Z,0.30
2023-05-03T11:09:34.203Z,0.60
2023-05-03T11:12:06.413Z,0.10
2023-05-03T11:14:34.156Z,0.32
2023-05-03T11:17:02.095Z,0.60
2023-05-03T11:19:29.918Z,0.30
2023-05-03T11:21:58.124Z,0.57
2023-05-03T11:24:25.890Z,0.00
2023-05-03T11:26:53.536Z,0.20
2023-05-03T11:29:22.048Z,0.25
2023-05-03T11:31:51.917Z,0.10
2023-05-03T11:34:19.868Z,0.10
2023-05-03T11:36:47.689Z,0.10
2023-05-03T11:39:15.581Z,0.25
2023-05-03T11:41:43.317Z,0.10
2023-05-03T11:44:16.909Z,0.10
2023-05-03T11:46:46.674Z,0.10
2023-05-03T11:49:18.757Z,0.40
2023-05-03T11:51:49.356Z,0.00
2023-05-03T11:54:26.276Z,0.10
2023-05-03T11:56:59.543Z,0.40
2023-05-03T11:59:39.272Z,0.38
2023-05-03T12:02:14.877Z,0.10
2023-05-03T12:04:46.425Z,0.10
2023-05-03T12:07:17.624Z,0.10
2023-05-03T12:09:52.609Z,0.17
2023-05-03T12:12:43.251Z,0.22
2023-05-03T12:15:16.405Z,0.20
2023-05-03T12:17:48.878Z,0.38
2023-05-03T12:22:57.717Z,0.30
2023-05-03T12:25:31.019Z,0.10
2023-05-03T12:30:34.424Z,0.50
2023-05-03T12:33:04.645Z,0.15
2023-05-03T12:35:34.363Z,0.35
2023-05-03T12:38:04.755Z,0.20
2023-05-03T12:40:34.809Z,0.40
2023-05-03T12:43:03.419Z,0.13
2023-05-03T12:45:34.490Z,0.38
2023-05-03T12:48:03.287Z,0.55
2023-05-03T12:50:32.190Z,0.30
2023-05-03T12:53:02.629Z,0.28
2023-05-03T12:55:35.462Z,0.70
2023-05-03T12:58:33.304Z,0.32
2023-05-03T13:03:23.330Z,0.22
2023-05-03T13:05:56.935Z,0.30
2023-05-03T13:08:33.016Z,0.22
2023-05-03T13:11:01.603Z,0.45
2023-05-03T13:13:29.782Z,0.20
2023-05-03T13:15:57.420Z,0.32
2023-05-03T13:18:25.372Z,0.50
2023-05-03T13:20:53.109Z,0.30
2023-05-03T13:23:20.895Z,0.40
2023-05-03T13:25:48.740Z,0.40
2023-05-03T13:28:20.580Z,0.43
2023-05-03T13:30:48.283Z,0.77
2023-05-03T13:33:15.970Z,0.88
2023-05-03T13:35:46.462Z,0.43
2023-05-03T13:38:16.469Z,0.20
2023-05-03T13:40:44.162Z,1.10
2023-05-03T13:43:11.968Z,3.80
2023-05-03T13:45:40.072Z,1.27
2023-05-03T13:48:18.130Z,0.70
2023-05-03T13:50:46.907Z,0.40
2023-05-03T13:53:15.037Z,0.40
2023-05-03T13:55:42.819Z,0.63
2023-05-03T13:58:10.637Z,0.75
2023-05-03T14:00:39.449Z,0.57
2023-05-03T14:03:07.427Z,0.70
2023-05-03T14:05:35.796Z,0.60
2023-05-03T14:08:03.745Z,6.20
2023-05-03T14:10:34.988Z,5.13
2023-05-03T14:13:03.007Z,1.00
2023-05-03T14:15:31.167Z,8.45
2023-05-03T14:18:01.253Z,1.58
2023-05-03T14:20:32.993Z,0.40
2023-05-03T14:23:01.057Z,0.50
2023-05-03T14:25:29.654Z,0.73
2023-05-03T14:28:01.023Z,0.57
2023-05-03T14:30:29.002Z,0.40
2023-05-03T14:32:56.740Z,0.52
2023-05-03T14:35:24.701Z,1.30
2023-05-03T14:37:52.728Z,0.80
2023-05-03T14:40:20.928Z,2.72
2023-05-03T14:42:49.006Z,0.73
2023-05-03T14:45:16.731Z,0.63
2023-05-03T14:47:44.789Z,0.40
2023-05-03T14:50:12.584Z,0.60
2023-05-03T14:52:40.391Z,0.88
2023-05-03T14:55:11.285Z,0.43
2023-05-03T14:57:39.640Z,0.55
2023-05-03T15:00:14.344Z,1.00
2023-05-03T15:02:42.699Z,0.90
2023-05-03T15:05:11.049Z,1.00
2023-05-03T15:07:39.469Z,0.88
2023-05-03T15:10:08.707Z,0.93
2023-05-03T15:12:38.230Z,0.93
2023-05-03T15:15:07.847Z,0.60
2023-05-03T15:17:36.249Z,0.68
2023-05-03T15:20:05.178Z,0.93
2023-05-03T15:22:36.123Z,0.73
2023-05-03T15:25:05.188Z,1.15
2023-05-03T15:27:34.072Z,1.77
2023-05-03T15:30:01.901Z,1.60
2023-05-03T15:32:29.888Z,1.42
2023-05-03T15:34:57.990Z,0.65
2023-05-03T15:37:38.068Z,1.00
2023-05-03T15:40:09.432Z,0.88
2023-05-03T15:42:37.806Z,1.23
2023-05-03T15:45:07.032Z,1.20
2023-05-03T15:47:34.708Z,1.73
2023-05-03T15:50:02.904Z,1.75
2023-05-03T15:52:31.060Z,1.00
2023-05-03T15:54:58.854Z,1.20
2023-05-03T15:57:26.896Z,1.40
2023-05-03T15:59:54.808Z,1.52
2023-05-03T16:02:22.948Z,0.85
2023-05-03T16:04:51.017Z,0.80
2023-05-03T16:07:19.497Z,0.82
2023-05-03T16:09:47.561Z,0.93
2023-05-03T16:12:15.236Z,0.98
2023-05-03T16:14:43.121Z,1.05
2023-05-03T16:17:10.812Z,1.20
2023-05-03T16:19:38.615Z,1.40
2023-05-03T16:22:06.844Z,1.20
2023-05-03T16:24:35.068Z,1.00
2023-05-03T16:27:03.736Z,0.70
2023-05-03T16:29:33.794Z,1.00
2023-05-03T16:32:01.524Z,0.77
2023-05-03T16:34:29.402Z,1.15
2023-05-03T16:36:57.130Z,1.80
2023-05-03T16:39:24.834Z,1.83
2023-05-03T16:41:52.508Z,1.52
2023-05-03T16:44:20.426Z,1.58
2023-05-03T16:46:48.862Z,0.68
2023-05-03T16:49:18.513Z,1.05
2023-05-03T16:51:51.571Z,0.98
2023-05-03T16:54:23.871Z,0.85
2023-05-03T16:56:52.250Z,1.17
2023-05-03T16:59:20.039Z,0.85
2023-05-03T17:01:47.926Z,0.88
2023-05-03T17:04:15.648Z,1.05
2023-05-03T17:06:43.379Z,0.95
2023-05-03T17:09:11.575Z,0.90
2023-05-03T17:11:39.687Z,0.90
2023-05-03T17:14:07.424Z,0.70
2023-05-03T17:16:39.264Z,0.82
2023-05-03T17:19:09.659Z,0.70
2023-05-03T17:21:37.954Z,0.75
2023-05-03T17:24:06.035Z,1.30
2023-05-03T17:26:33.958Z,1.02
2023-05-03T17:29:01.805Z,1.02
2023-05-03T17:31:29.582Z,0.98
2023-05-03T17:33:57.354Z,0.68
2023-05-03T17:36:25.100Z,0.88
2023-05-03T17:38:52.974Z,1.00
2023-05-03T17:41:21.472Z,1.00
2023-05-03T17:43:50.355Z,0.95
2023-05-03T17:46:20.415Z,1.20
2023-05-03T17:48:49.448Z,0.98
2023-05-03T17:51:17.162Z,1.15
2023-05-03T17:53:44.899Z,1.30
2023-05-03T17:56:16.826Z,0.90
2023-05-03T17:58:46.639Z,1.35
2023-05-03T18:01:16.038Z,1.40
2023-05-03T18:03:44.024Z,1.05
2023-05-03T18:06:13.543Z,1.20
2023-05-03T18:08:44.036Z,1.08
2023-05-03T18:11:11.834Z,1.23
2023-05-03T18:13:40.269Z,1.27
2023-05-03T18:16:08.981Z,1.00
2023-05-03T18:18:37.408Z,1.17
2023-05-03T18:21:05.599Z,1.50
2023-05-03T18:23:33.894Z,1.38
2023-05-03T18:26:01.658Z,1.38
2023-05-03T18:28:29.730Z,1.23
2023-05-03T18:30:57.667Z,1.50
2023-05-03T18:33:25.374Z,1.50
2023-05-03T18:35:53.648Z,1.40
2023-05-03T18:38:23.436Z,1.42
2023-05-03T18:40:56.207Z,1.58
2023-05-03T18:43:23.999Z,1.48
2023-05-03T18:45:52.312Z,1.10
2023-05-03T18:48:20.052Z,1.42
2023-05-03T18:50:47.931Z,1.48
2023-05-03T18:53:15.594Z,2.05
2023-05-03T18:55:44.033Z,1.40
2023-05-03T18:58:11.815Z,1.48
2023-05-03T19:00:39.510Z,1.00
2023-05-03T19:03:07.353Z,0.93
2023-05-03T19:05:35.195Z,1.55
2023-05-03T19:08:02.917Z,2.05
2023-05-03T19:10:30.832Z,1.48
2023-05-03T19:12:58.635Z,1.35
2023-05-03T19:15:27.216Z,1.45
2023-05-03T19:17:55.262Z,1.45
2023-05-03T19:20:23.012Z,1.58
2023-05-03T19:22:50.756Z,1.42
2023-05-03T19:25:18.489Z,1.50
2023-05-03T19:27:46.252Z,1.42
2023-05-03T19:30:14.134Z,1.38
2023-05-03T19:33:07.119Z,1.40
2023-05-03T19:35:41.034Z,1.60
2023-05-03T19:38:08.732Z,1.52
2023-05-03T19:40:36.947Z,1.50
2023-05-03T19:43:10.969Z,1.33
2023-05-03T19:45:44.894Z,1.60
2023-05-03T19:48:13.983Z,1.60
2023-05-03T19:50:43.151Z,1.60
2023-05-03T19:53:14.257Z,1.73
2023-05-03T19:55:41.919Z,1.67
2023-05-03T19:58:09.529Z,1.58
2023-05-03T20:00:37.220Z,1.10
2023-05-03T20:03:04.885Z,1.40
2023-05-03T20:05:32.501Z,1.15
2023-05-03T20:08:00.124Z,1.63
2023-05-03T20:10:36.245Z,1.20
2023-05-03T20:13:04.183Z,1.35
2023-05-03T20:15:32.175Z,1.65
2023-05-03T20:17:59.803Z,1.50
2023-05-03T20:20:28.430Z,1.58
2023-05-03T20:22:56.173Z,1.20
2023-05-03T20:25:25.227Z,1.45
2023-05-03T20:27:53.283Z,1.65
2023-05-03T20:30:21.407Z,1.75
2023-05-03T20:32:49.225Z,1.42
2023-05-03T20:35:18.037Z,1.70
2023-05-03T20:37:46.148Z,1.45
2023-05-03T20:40:13.760Z,1.70
2023-05-03T20:42:41.327Z,1.98
2023-05-03T20:45:09.312Z,1.40
2023-05-03T20:47:37.006Z,1.65
2023-05-03T20:50:05.988Z,1.88
2023-05-03T20:52:33.807Z,1.42
2023-05-03T20:55:01.453Z,1.95
2023-05-03T20:57:29.177Z,1.30
2023-05-03T20:59:56.763Z,1.80
2023-05-03T21:02:24.509Z,1.70
2023-05-03T21:04:52.312Z,1.60
2023-05-03T21:07:19.858Z,1.33
2023-05-03T21:09:50.862Z,2.00
2023-05-03T21:12:18.949Z,1.25
2023-05-03T21:14:46.711Z,1.60
2023-05-03T21:17:14.470Z,1.35
2023-05-03T21:19:42.106Z,1.75
2023-05-03T21:22:09.658Z,1.83
2023-05-03T21:24:37.321Z,1.40
2023-05-03T21:27:04.912Z,1.40
2023-05-03T21:29:32.606Z,1.63
2023-05-03T21:32:00.378Z,1.67
2023-05-03T21:34:28.068Z,2.13
2023-05-03T21:36:55.694Z,1.40
2023-05-03T21:39:23.293Z,1.80
2023-05-03T21:41:51.695Z,1.55
2023-05-03T21:44:19.277Z,1.90
2023-05-03T21:46:46.878Z,1.85
2023-05-03T21:49:15.917Z,1.48
2023-05-03T21:51:43.602Z,1.45
2023-05-03T21:54:11.275Z,1.60
2023-05-03T21:56:39.064Z,1.83
2023-05-03T21:59:06.738Z,1.73
2023-05-03T22:01:34.414Z,1.67
2023-05-03T22:04:02.260Z,1.98
2023-05-03T22:06:31.200Z,1.77
2023-05-03T22:08:58.778Z,1.30
2023-05-03T22:11:26.588Z,1.73
2023-05-03T22:14:06.933Z,2.28
2023-05-03T22:16:38.700Z,2.10
2023-05-03T22:19:06.435Z,1.88
2023-05-03T22:21:35.296Z,1.60
2023-05-03T22:24:12.597Z,1.80
2023-05-03T22:26:40.214Z,2.15
2023-05-03T22:29:07.746Z,1.92
2023-05-03T22:31:35.449Z,1.65
2023-05-03T22:34:03.682Z,1.80
2023-05-03T22:36:31.289Z,2.05
2023-05-03T22:39:05.130Z,1.63
2023-05-03T22:41:33.162Z,2.20
2023-05-03T22:44:00.756Z,1.67
2023-05-03T22:46:29.306Z,2.10
2023-05-03T22:48:57.349Z,1.75
2023-05-03T22:51:25.088Z,2.10
2023-05-03T22:53:52.677Z,1.63
2023-05-03T22:56:20.298Z,1.60
2023-05-03T22:58:48.090Z,1.77
2023-05-03T23:01:15.784Z,1.92
2023-05-03T23:03:43.544Z,1.90
2023-05-03T23:06:11.435Z,1.85
2023-05-03T23:08:39.149Z,1.67
2023-05-03T23:11:06.785Z,1.75
2023-05-03T23:13:34.453Z,2.20
2023-05-03T23:16:02.137Z,2.33
2023-05-03T23:18:29.812Z,1.73
2023-05-03T23:20:57.376Z,1.90
2023-05-03T23:23:25.064Z,1.58
2023-05-03T23:25:52.835Z,1.95
2023-05-03T23:28:21.257Z,2.10
2023-05-03T23:30:49.429Z,1.92
2023-05-03T23:33:17.459Z,2.30
2023-05-03T23:35:45.498Z,2.30
2023-05-03T23:38:13.190Z,1.80
2023-05-03T23:40:40.788Z,1.90
2023-05-03T23:43:08.647Z,2.10
2023-05-03T23:45:36.254Z,2.25
2023-05-03T23:48:04.142Z,1.70
2023-05-03T23:50:31.985Z,1.98
2023-05-03T23:52:59.710Z,2.00
2023-05-03T23:55:27.379Z,1.77
2023-05-03T23:57:54.939Z,1.75
